Time;durP1;ratioP1;P1;durP2;ratioP2;P2;SDS_P1;SDS_P2;PMS_P1;PMS_P2;Temp;Humidity;BMP_temperature;BMP_pressure;BME280_temperature;BME280_humidity;BME280_pressure;Samples;Min_cycle;Max_cycle;Signal;HPM_P1;HPM_P2
2021/03/19 00:01:08;;;;;;;59.60;36.58;;;3.20;91.00;;;;;;5067691;28;20385;-56
2021/03/19 00:03:34;;;;;;;57.78;35.95;;;3.20;90.90;;;;;;5056916;28;20082;-53
2021/03/19 00:06:00;;;;;;;61.97;38.08;;;3.10;90.90;;;;;;5071783;28;20510;-51
2021/03/19 00:08:25;;;;;;;60.05;35.63;;;3.00;91.10;;;;;;5073278;28;20036;-54
2021/03/19 00:10:51;;;;;;;57.20;34.67;;;3.00;91.20;;;;;;5072504;28;20047;-53
2021/03/19 00:13:17;;;;;;;57.67;34.42;;;3.00;90.90;;;;;;5072375;28;20021;-57
2021/03/19 00:15:42;;;;;;;56.38;34.53;;;3.00;90.90;;;;;;5071138;28;20070;-57
2021/03/19 00:18:09;;;;;;;51.75;34.22;;;3.00;90.80;;;;;;5072636;28;20017;-57
2021/03/19 00:20:38;;;;;;;54.78;33.03;;;3.00;91.10;;;;;;5072247;28;20037;-57
2021/03/19 00:23:05;;;;;;;52.58;32.42;;;2.90;91.00;;;;;;5072072;28;20044;-57
2021/03/19 00:25:32;;;;;;;52.67;32.47;;;3.00;90.90;;;;;;5071788;28;20044;-57
2021/03/19 00:27:57;;;;;;;55.13;32.10;;;3.00;90.60;;;;;;5054245;28;20759;-55
2021/03/19 00:30:24;;;;;;;51.20;32.03;;;3.00;90.70;;;;;;5070975;28;20035;-58
2021/03/19 00:32:50;;;;;;;52.75;32.40;;;2.90;90.80;;;;;;5053946;28;20082;-55
2021/03/19 00:35:16;;;;;;;48.45;31.23;;;2.80;91.10;;;;;;5072207;28;20067;-58
2021/03/19 00:37:41;;;;;;;50.75;30.40;;;2.80;91.20;;;;;;5071394;28;20064;-55
2021/03/19 00:40:12;;;;;;;51.20;30.55;;;2.90;91.00;;;;;;5047145;28;20029;-55
2021/03/19 00:42:39;;;;;;;49.53;31.00;;;2.90;90.80;;;;;;5068686;28;20045;-55
2021/03/19 00:45:07;;;;;;;50.80;30.67;;;2.90;90.80;;;;;;5063256;28;20047;-55
2021/03/19 00:47:33;;;;;;;47.72;30.33;;;2.90;91.10;;;;;;5052970;28;20106;-52
2021/03/19 00:49:59;;;;;;;50.17;30.88;;;2.90;90.70;;;;;;5067506;28;20432;-54
2021/03/19 00:52:25;;;;;;;48.80;29.98;;;2.70;91.00;;;;;;5071704;28;20041;-53
2021/03/19 00:54:50;;;;;;;49.65;30.60;;;2.70;91.10;;;;;;5072057;28;20040;-56
2021/03/19 00:57:16;;;;;;;43.85;29.73;;;2.90;91.10;;;;;;5058510;28;20044;-57
2021/03/19 00:59:41;;;;;;;50.47;30.70;;;2.90;90.90;;;;;;5059409;28;20644;-52
2021/03/19 01:02:08;;;;;;;45.83;28.60;;;2.80;91.00;;;;;;5061293;28;20078;-53
2021/03/19 01:04:33;;;;;;;44.70;28.75;;;2.70;91.00;;;;;;5060496;28;20032;-50
2021/03/19 01:06:59;;;;;;;44.38;27.75;;;2.70;90.90;;;;;;5047095;28;20202;-54
2021/03/19 01:09:25;;;;;;;45.75;29.23;;;2.70;90.90;;;;;;5058899;28;20507;-56
2021/03/19 01:11:50;;;;;;;46.83;27.70;;;2.70;91.00;;;;;;5063407;28;20032;-55
2021/03/19 01:14:16;;;;;;;43.90;27.45;;;2.80;90.80;;;;;;5064369;28;20083;-55
2021/03/19 01:16:42;;;;;;;44.40;27.75;;;2.90;90.70;;;;;;5059902;28;20053;-53
2021/03/19 01:19:08;;;;;;;48.03;30.17;;;2.80;90.50;;;;;;5064455;28;20036;-52
2021/03/19 01:21:33;;;;;;;44.45;28.23;;;2.80;90.70;;;;;;5061268;28;20124;-54
2021/03/19 01:23:59;;;;;;;45.72;28.10;;;2.90;90.80;;;;;;5069533;28;20037;-55
2021/03/19 01:26:25;;;;;;;49.60;29.75;;;2.90;90.40;;;;;;5033848;28;20029;-53
2021/03/19 01:28:50;;;;;;;46.42;28.85;;;2.90;90.70;;;;;;5071104;28;20108;-55
2021/03/19 01:31:16;;;;;;;46.20;28.00;;;2.80;90.60;;;;;;5071556;28;20039;-51
2021/03/19 01:33:42;;;;;;;44.88;26.85;;;2.80;90.70;;;;;;5053020;28;20040;-53
2021/03/19 01:36:07;;;;;;;42.97;27.52;;;2.80;90.80;;;;;;5071429;28;20525;-53
2021/03/19 01:38:38;;;;;;;44.95;27.45;;;2.80;90.50;;;;;;5070212;28;20101;-56
2021/03/19 01:41:06;;;;;;;42.83;26.80;;;2.90;90.70;;;;;;5071208;28;20047;-54
2021/03/19 01:43:42;;;;;;;40.00;25.73;;;2.90;90.50;;;;;;5071116;28;20032;-50
2021/03/19 01:46:45;;;;;;;44.85;27.35;;;2.90;90.60;;;;;;5053623;28;20116;-55
2021/03/19 01:50:04;;;;;;;44.20;26.70;;;2.80;90.50;;;;;;5056774;28;20119;-52
2021/03/19 01:53:07;;;;;;;43.55;27.75;;;2.80;90.70;;;;;;4983631;28;20069;-55
2021/03/19 01:56:10;;;;;;;44.78;26.77;;;2.70;90.90;;;;;;5071183;28;20036;-51
2021/03/19 01:59:13;;;;;;;43.95;27.23;;;2.70;90.90;;;;;;5070322;28;20047;-52
2021/03/19 02:02:18;;;;;;;44.97;27.05;;;2.90;90.90;;;;;;5071209;28;20029;-54
2021/03/19 02:05:21;;;;;;;44.00;26.58;;;2.70;90.80;;;;;;5020373;28;20040;-51
2021/03/19 02:08:24;;;;;;;43.83;27.20;;;2.70;91.10;;;;;;5070463;28;20020;-52
2021/03/19 02:11:27;;;;;;;46.33;27.45;;;2.60;91.00;;;;;;5071030;28;20035;-53
2021/03/19 02:14:30;;;;;;;45.53;27.38;;;2.70;91.10;;;;;;5070382;28;20071;-52
2021/03/19 02:17:33;;;;;;;45.55;26.67;;;2.80;90.90;;;;;;5074185;28;20029;-54
2021/03/19 02:20:36;;;;;;;44.92;28.92;;;2.80;90.90;;;;;;5074351;28;20483;-56
2021/03/19 02:23:39;;;;;;;47.20;29.90;;;2.70;91.10;;;;;;5074929;28;20044;-53
2021/03/19 02:26:41;;;;;;;51.38;31.23;;;2.70;91.10;;;;;;5066918;28;20044;-53
2021/03/19 02:29:45;;;;;;;58.70;33.33;;;2.60;91.30;;;;;;5074582;28;20036;-54
2021/03/19 02:32:18;;;;;;;56.22;34.20;;;2.60;91.20;;;;;;5074546;28;20032;-56
2021/03/19 02:35:08;;;;;;;56.78;35.47;;;2.60;91.20;;;;;;5074784;28;20107;-52
2021/03/19 02:37:35;;;;;;;64.88;37.50;;;2.60;91.30;;;;;;5036456;28;20047;-51
2021/03/19 02:40:01;;;;;;;61.28;37.83;;;2.60;91.30;;;;;;5055083;28;20484;-52
2021/03/19 02:42:30;;;;;;;63.80;39.45;;;2.60;91.30;;;;;;5074261;28;20135;-53
2021/03/19 02:44:57;;;;;;;66.45;40.70;;;2.60;91.40;;;;;;5074361;28;20029;-52
2021/03/19 02:47:23;;;;;;;62.92;39.40;;;2.60;91.30;;;;;;5073824;28;20044;-49
2021/03/19 02:49:49;;;;;;;64.75;39.65;;;2.80;90.90;;;;;;5073608;28;20475;-53
2021/03/19 02:52:16;;;;;;;65.03;40.90;;;2.70;90.90;;;;;;5074258;28;20040;-52
2021/03/19 02:54:42;;;;;;;62.53;40.10;;;2.70;91.00;;;;;;5074320;28;20079;-50
2021/03/19 02:57:07;;;;;;;68.68;42.10;;;2.60;91.20;;;;;;5073887;28;20064;-55
2021/03/19 02:59:33;;;;;;;67.20;41.53;;;2.60;91.20;;;;;;5074062;28;20029;-52
2021/03/19 03:01:58;;;;;;;66.13;41.55;;;2.50;91.30;;;;;;5073944;28;20537;-54
2021/03/19 03:04:24;;;;;;;66.07;39.97;;;2.60;91.30;;;;;;5074421;28;20044;-54
2021/03/19 03:06:56;;;;;;;63.70;39.47;;;2.70;91.10;;;;;;5073792;28;20045;-50
2021/03/19 03:09:25;;;;;;;63.10;38.50;;;2.60;91.40;;;;;;5056249;28;20029;-49
2021/03/19 03:11:51;;;;;;;57.13;34.63;;;2.60;91.50;;;;;;5073809;28;20040;-55
2021/03/19 03:14:21;;;;;;;56.47;35.65;;;2.60;91.30;;;;;;5073842;28;20076;-52
2021/03/19 03:16:48;;;;;;;58.92;35.08;;;2.70;91.40;;;;;;5073638;28;20040;-50
2021/03/19 03:19:17;;;;;;;58.55;35.45;;;2.70;91.30;;;;;;5073170;28;20078;-51
2021/03/19 03:21:55;;;;;;;57.58;33.97;;;2.60;91.40;;;;;;5073299;28;20040;-50
2021/03/19 03:24:22;;;;;;;56.70;31.42;;;2.50;91.50;;;;;;5055615;28;20114;-49
2021/03/19 03:26:48;;;;;;;58.45;34.75;;;2.50;91.60;;;;;;5055493;28;20036;-52
2021/03/19 03:29:14;;;;;;;54.22;31.77;;;2.50;91.50;;;;;;5073233;28;20495;-50
2021/03/19 03:31:41;;;;;;;55.25;32.28;;;2.50;91.50;;;;;;5072878;28;20035;-48
2021/03/19 03:34:08;;;;;;;53.00;31.20;;;2.50;91.50;;;;;;5072828;28;20108;-51
2021/03/19 03:36:34;;;;;;;52.47;32.55;;;2.60;91.40;;;;;;5055072;28;20048;-54
2021/03/19 03:39:06;;;;;;;55.80;31.27;;;2.60;91.40;;;;;;5073067;28;20112;-56
2021/03/19 03:41:32;;;;;;;53.30;30.95;;;2.40;91.60;;;;;;5073072;28;20040;-52
2021/03/19 03:43:58;;;;;;;53.05;31.30;;;2.50;91.60;;;;;;5073397;28;20126;-50
2021/03/19 03:46:26;;;;;;;49.80;29.48;;;2.50;91.40;;;;;;5073008;28;20487;-50
2021/03/19 03:48:54;;;;;;;45.97;28.17;;;2.50;91.40;;;;;;5072826;28;20047;-50
2021/03/19 03:51:21;;;;;;;46.90;28.48;;;2.40;91.20;;;;;;5071662;28;20052;-52
2021/03/19 03:53:46;;;;;;;43.95;26.08;;;2.50;91.10;;;;;;5073195;28;20102;-48
2021/03/19 03:56:13;;;;;;;50.75;29.02;;;2.50;91.00;;;;;;5072679;28;20041;-53
2021/03/19 03:58:39;;;;;;;45.10;26.55;;;2.40;91.30;;;;;;5072770;28;20071;-56
2021/03/19 04:01:05;;;;;;;45.90;26.10;;;2.50;91.00;;;;;;5072538;28;20506;-54
2021/03/19 04:03:32;;;;;;;43.25;26.90;;;2.50;91.00;;;;;;5073088;28;20391;-55
2021/03/19 04:05:58;;;;;;;45.53;26.15;;;2.50;91.00;;;;;;5072960;28;20035;-52
2021/03/19 04:08:27;;;;;;;48.00;26.83;;;2.50;91.10;;;;;;5072299;28;20369;-51
2021/03/19 04:10:56;;;;;;;40.25;25.13;;;2.60;90.90;;;;;;5072905;28;20032;-51
2021/03/19 04:13:24;;;;;;;37.70;23.63;;;2.50;90.90;;;;;;5072416;28;20487;-49
2021/03/19 04:15:51;;;;;;;43.35;25.35;;;2.40;90.80;;;;;;5072799;28;20025;-51
2021/03/19 04:18:18;;;;;;;42.20;24.70;;;2.30;91.00;;;;;;5071960;28;20024;-51
2021/03/19 04:20:47;;;;;;;46.13;26.20;;;2.20;91.00;;;;;;5055157;28;20119;-53
2021/03/19 04:23:13;;;;;;;37.53;23.08;;;2.00;91.50;;;;;;5071910;28;20040;-55
2021/03/19 04:25:38;;;;;;;42.00;24.08;;;2.10;91.30;;;;;;5057433;28;20095;-52
2021/03/19 04:28:09;;;;;;;38.67;22.75;;;2.10;91.30;;;;;;5066113;28;20455;-54
2021/03/19 04:30:41;;;;;;;38.47;24.30;;;2.10;91.20;;;;;;5057439;28;20077;-52
2021/03/19 04:33:15;;;;;;;41.97;23.45;;;2.10;91.10;;;;;;5064430;28;20075;-52
2021/03/19 04:35:40;;;;;;;39.10;24.20;;;2.00;91.20;;;;;;5049155;28;20032;-51
2021/03/19 04:38:13;;;;;;;38.00;21.67;;;2.00;91.20;;;;;;5047197;28;20394;-59
2021/03/19 04:40:43;;;;;;;36.17;22.58;;;2.00;91.30;;;;;;5054771;28;20100;-51
2021/03/19 04:43:10;;;;;;;35.78;21.80;;;2.00;91.50;;;;;;5054421;28;20040;-50
2021/03/19 04:45:41;;;;;;;36.97;22.98;;;2.00;91.20;;;;;;5038013;28;20119;-48
2021/03/19 04:48:07;;;;;;;37.38;22.80;;;1.90;91.30;;;;;;5071580;28;20091;-55
2021/03/19 04:50:34;;;;;;;40.90;21.80;;;1.90;91.50;;;;;;5071966;28;20024;-54
2021/03/19 04:53:00;;;;;;;39.10;22.92;;;1.90;91.50;;;;;;5072174;28;20036;-52
2021/03/19 04:55:26;;;;;;;37.45;23.65;;;1.70;91.60;;;;;;5072319;28;20020;-49
2021/03/19 04:57:52;;;;;;;41.45;24.77;;;1.80;91.50;;;;;;5053598;28;20040;-53
2021/03/19 05:00:19;;;;;;;43.08;22.73;;;1.70;91.60;;;;;;5072157;28;20098;-52
2021/03/19 05:02:48;;;;;;;39.53;22.20;;;1.60;91.90;;;;;;5071652;28;20075;-50
2021/03/19 05:05:33;;;;;;;38.30;22.83;;;1.70;92.00;;;;;;5072824;28;20032;-50
2021/03/19 05:07:59;;;;;;;;;;;1.60;91.90;;;;;;5071529;28;20511;-50
2021/03/19 05:10:28;;;;;;;39.05;23.30;;;1.60;92.20;;;;;;5072005;28;19909;-51
2021/03/19 05:12:55;;;;;;;45.80;25.25;;;1.60;92.30;;;;;;5072334;28;20403;-51
2021/03/19 05:15:22;;;;;;;44.60;24.05;;;1.60;92.50;;;;;;5072217;28;20029;-49
2021/03/19 05:17:48;;;;;;;44.63;25.67;;;1.50;92.60;;;;;;5071313;28;20029;-51
2021/03/19 05:20:14;;;;;;;41.38;23.13;;;1.60;92.40;;;;;;5072900;28;20596;-54
2021/03/19 05:22:40;;;;;;;41.75;24.50;;;1.60;92.30;;;;;;5073229;28;20075;-51
2021/03/19 05:25:09;;;;;;;43.55;25.15;;;1.60;92.30;;;;;;5062113;28;20033;-53
2021/03/19 05:27:35;;;;;;;46.55;25.88;;;1.70;92.30;;;;;;5056179;28;20024;-55
2021/03/19 05:30:00;;;;;;;49.40;26.95;;;1.70;92.40;;;;;;5072045;28;20040;-49
2021/03/19 05:32:27;;;;;;;51.30;26.85;;;1.70;92.80;;;;;;5072289;28;20045;-54
2021/03/19 05:34:53;;;;;;;48.15;28.02;;;1.70;92.60;;;;;;5072125;28;20039;-49
2021/03/19 05:37:20;;;;;;;51.08;26.80;;;1.60;92.70;;;;;;5020956;28;20383;-49
2021/03/19 05:39:45;;;;;;;44.60;25.60;;;1.70;92.70;;;;;;5071084;28;20029;-52
2021/03/19 05:42:18;;;;;;;50.00;27.00;;;1.80;92.50;;;;;;5071482;28;20045;-55
2021/03/19 05:44:45;;;;;;;43.10;26.48;;;1.70;92.70;;;;;;5053777;28;20059;-50
2021/03/19 05:47:13;;;;;;;48.97;26.42;;;1.80;92.70;;;;;;5075570;28;20078;-51
2021/03/19 05:49:39;;;;;;;47.10;27.90;;;1.80;92.60;;;;;;5075112;28;20029;-54
2021/03/19 05:52:07;;;;;;;44.38;25.40;;;1.70;92.80;;;;;;5076149;28;20372;-52
2021/03/19 05:54:42;;;;;;;50.22;25.05;;;1.70;92.70;;;;;;5075608;28;20021;-52
2021/03/19 05:57:30;;;;;;;47.33;25.05;;;1.80;92.60;;;;;;5075984;28;20029;-56
2021/03/19 05:59:58;;;;;;;43.78;24.80;;;1.80;92.50;;;;;;5075404;28;20033;-57
2021/03/19 06:02:27;;;;;;;46.85;25.33;;;1.80;92.50;;;;;;5075572;28;20032;-53
2021/03/19 06:05:13;;;;;;;39.78;24.65;;;1.70;92.70;;;;;;5075939;28;20059;-53
2021/03/19 06:07:45;;;;;;;41.92;23.77;;;1.70;92.80;;;;;;5075573;28;20082;-49
2021/03/19 06:10:28;;;;;;;36.42;22.77;;;1.80;92.50;;;;;;5056252;28;20033;-56
2021/03/19 06:12:57;;;;;;;38.40;23.58;;;1.90;92.30;;;;;;5067686;28;20035;-55
2021/03/19 06:15:26;;;;;;;44.08;25.35;;;1.80;92.20;;;;;;5076349;28;20039;-52
2021/03/19 06:17:53;;;;;;;32.28;19.90;;;1.80;92.30;;;;;;5075325;28;20040;-54
2021/03/19 06:20:20;;;;;;;37.70;21.38;;;1.90;91.90;;;;;;5076173;28;20135;-54
2021/03/19 06:22:56;;;;;;;31.45;20.35;;;1.90;92.20;;;;;;5076542;28;20051;-55
2021/03/19 06:25:41;;;;;;;31.73;20.60;;;1.80;92.10;;;;;;5071271;28;20169;-57
2021/03/19 06:28:37;;;;;;;29.67;19.50;;;1.80;92.10;;;;;;5077456;28;20120;-57
2021/03/19 06:31:21;;;;;;;28.92;19.00;;;1.80;92.10;;;;;;5079160;28;20440;-52
2021/03/19 06:34:01;;;;;;;30.57;19.00;;;1.90;91.80;;;;;;5075918;28;20028;-50
2021/03/19 06:36:27;;;;;;;25.05;17.35;;;1.90;91.90;;;;;;5056795;28;20032;-52
2021/03/19 06:39:07;;;;;;;25.92;17.85;;;1.90;91.80;;;;;;5075460;28;20100;-56
2021/03/19 06:41:36;;;;;;;26.85;16.65;;;2.00;91.80;;;;;;5057564;28;20545;-55
2021/03/19 06:44:11;;;;;;;24.85;15.88;;;1.90;91.70;;;;;;5074569;28;20071;-54
2021/03/19 06:46:52;;;;;;;25.60;16.55;;;1.90;91.80;;;;;;5074238;28;20028;-52
2021/03/19 06:49:21;;;;;;;25.40;16.15;;;2.00;91.70;;;;;;5056051;28;20056;-54
2021/03/19 06:51:52;;;;;;;25.00;16.60;;;2.00;91.50;;;;;;5074086;28;20507;-56
2021/03/19 06:54:22;;;;;;;24.55;15.38;;;2.00;91.70;;;;;;5073644;28;20391;-53
2021/03/19 06:57:10;;;;;;;22.48;14.98;;;2.00;91.60;;;;;;5074102;28;20071;-54
2021/03/19 06:59:49;;;;;;;23.40;15.70;;;2.00;91.50;;;;;;5072766;28;20040;-54
2021/03/19 07:02:48;;;;;;;22.65;14.73;;;2.30;91.10;;;;;;5073951;28;20131;-54
2021/03/19 07:06:06;;;;;;;21.70;15.40;;;2.30;90.50;;;;;;5073527;28;20054;-56
2021/03/19 07:08:57;;;;;;;22.80;15.20;;;2.30;90.40;;;;;;5054285;28;20048;-55
2021/03/19 07:11:55;;;;;;;22.25;14.90;;;2.30;90.80;;;;;;5048790;28;20033;-52
2021/03/19 07:14:52;;;;;;;24.88;15.95;;;2.40;90.10;;;;;;5041681;28;20368;-54
2021/03/19 07:17:23;;;;;;;23.17;14.68;;;2.10;90.40;;;;;;5073823;28;20032;-51
2021/03/19 07:20:01;;;;;;;22.65;15.52;;;2.10;90.40;;;;;;5073122;28;20048;-54
2021/03/19 07:22:49;;;;;;;20.92;13.93;;;2.30;90.10;;;;;;5073115;28;20032;-50
2021/03/19 07:25:45;;;;;;;18.83;13.82;;;2.30;89.00;;;;;;5073254;28;20060;-50
2021/03/19 07:28:36;;;;;;;22.17;15.13;;;2.40;89.50;;;;;;5073270;28;20034;-49
2021/03/19 07:31:07;;;;;;;22.52;15.18;;;2.50;88.80;;;;;;5073025;28;20032;-52
2021/03/19 07:33:47;;;;;;;20.42;14.18;;;2.50;88.60;;;;;;5074065;28;20104;-50
2021/03/19 07:36:24;;;;;;;24.70;14.75;;;2.60;87.70;;;;;;5073491;28;20427;-50
2021/03/19 07:39:30;;;;;;;22.17;14.32;;;2.50;88.20;;;;;;5072717;28;20028;-56
2021/03/19 07:42:17;;;;;;;;;;;2.40;88.70;;;;;;5054364;28;20060;-52
2021/03/19 07:44:51;;;;;;;21.45;14.13;;;2.50;88.10;;;;;;5059921;28;19912;-54
2021/03/19 07:47:59;;;;;;;23.40;15.32;;;2.30;89.30;;;;;;5073606;28;20078;-51
2021/03/19 07:50:49;;;;;;;20.55;14.48;;;2.40;89.00;;;;;;5073262;28;20043;-53
2021/03/19 07:53:52;;;;;;;21.95;14.27;;;2.40;89.10;;;;;;5073539;28;20028;-53
2021/03/19 07:56:30;;;;;;;21.67;14.43;;;2.60;88.40;;;;;;5073055;28;20151;-54
2021/03/19 07:59:17;;;;;;;24.83;14.90;;;2.50;89.00;;;;;;5072627;28;20407;-53
2021/03/19 08:01:55;;;;;;;19.17;14.02;;;2.70;88.50;;;;;;5067276;28;20044;-55
2021/03/19 08:04:52;;;;;;;20.33;14.18;;;2.80;87.50;;;;;;5055232;28;20111;-55
2021/03/19 08:07:40;;;;;;;20.10;14.15;;;2.90;86.40;;;;;;5073431;28;20028;-54
2021/03/19 08:10:24;;;;;;;19.73;13.05;;;3.00;86.30;;;;;;5054835;28;20098;-54
2021/03/19 08:12:55;;;;;;;18.00;12.07;;;3.10;85.70;;;;;;5072607;28;20036;-54
2021/03/19 08:15:52;;;;;;;16.90;12.48;;;3.30;84.70;;;;;;5072234;28;20483;-53
2021/03/19 08:18:33;;;;;;;22.67;13.07;;;3.40;84.00;;;;;;5072890;28;20492;-51
2021/03/19 08:21:06;;;;;;;19.48;13.52;;;3.20;84.60;;;;;;5073128;28;20036;-53
2021/03/19 08:24:02;;;;;;;17.48;12.27;;;3.10;84.60;;;;;;5072828;28;20094;-53
2021/03/19 08:26:44;;;;;;;19.40;13.13;;;3.30;84.90;;;;;;5069151;28;20538;-56
2021/03/19 08:29:41;;;;;;;17.20;12.30;;;3.50;83.80;;;;;;5073067;28;20037;-56
2021/03/19 08:32:37;;;;;;;16.52;12.50;;;3.50;83.00;;;;;;5060436;28;20075;-54
2021/03/19 08:35:16;;;;;;;20.58;13.18;;;3.20;84.30;;;;;;5063250;28;20028;-51
2021/03/19 08:38:00;;;;;;;18.35;13.35;;;3.00;85.20;;;;;;5061549;28;20033;-50
2021/03/19 08:40:49;;;;;;;19.67;13.37;;;3.00;85.20;;;;;;5063890;28;20100;-55
2021/03/19 08:43:41;;;;;;;21.58;13.57;;;3.10;85.20;;;;;;5072828;28;20041;-53
2021/03/19 08:46:24;;;;;;;18.15;12.85;;;3.20;85.10;;;;;;5073786;28;20541;-53
2021/03/19 08:49:11;;;;;;;18.90;13.07;;;3.20;83.60;;;;;;5072691;28;20036;-54
2021/03/19 08:51:45;;;;;;;17.65;12.90;;;3.20;83.20;;;;;;5071976;28;20107;-50
2021/03/19 08:54:17;;;;;;;20.45;13.90;;;3.30;83.90;;;;;;5062783;28;20041;-52
2021/03/19 08:57:15;;;;;;;18.42;13.10;;;3.50;83.10;;;;;;5068687;28;20102;-53
2021/03/19 08:59:41;;;;;;;19.00;12.93;;;3.60;81.80;;;;;;5056239;28;20119;-51
2021/03/19 09:02:24;;;;;;;20.63;14.75;;;3.50;81.20;;;;;;5072219;28;20056;-53
2021/03/19 09:04:53;;;;;;;20.00;12.82;;;3.30;82.30;;;;;;5073847;28;20032;-50
2021/03/19 09:07:24;;;;;;;22.95;14.73;;;3.30;82.30;;;;;;5073095;28;20054;-53
2021/03/19 09:09:52;;;;;;;26.85;14.63;;;3.40;82.50;;;;;;5073373;28;20037;-50
2021/03/19 09:12:43;;;;;;;25.38;14.73;;;3.60;82.70;;;;;;5072674;28;20029;-53
2021/03/19 09:15:17;;;;;;;25.58;14.13;;;3.60;82.20;;;;;;5027058;28;20044;-55
2021/03/19 09:17:42;;;;;;;22.58;13.88;;;3.50;80.50;;;;;;5072653;28;20040;-53
2021/03/19 09:20:31;;;;;;;26.05;15.98;;;3.50;80.40;;;;;;5073384;28;20036;-51
2021/03/19 09:23:11;;;;;;;28.15;16.35;;;3.40;81.30;;;;;;5058922;28;20171;-53
2021/03/19 09:25:41;;;;;;;26.42;16.42;;;3.30;83.00;;;;;;5067940;28;20036;-50
2021/03/19 09:28:31;;;;;;;28.60;16.83;;;3.40;82.60;;;;;;5049807;28;20052;-56
2021/03/19 09:31:26;;;;;;;28.08;15.90;;;3.20;82.40;;;;;;5066848;28;20032;-52
2021/03/19 09:33:51;;;;;;;26.58;15.68;;;3.20;82.70;;;;;;5053921;28;20495;-53
2021/03/19 09:37:05;;;;;;;28.77;15.55;;;3.30;83.20;;;;;;5047582;28;20047;-54
2021/03/19 09:39:55;;;;;;;27.50;16.55;;;3.20;82.70;;;;;;4983137;28;20046;-55
2021/03/19 09:42:21;;;;;;;27.77;16.50;;;3.20;84.30;;;;;;5060502;28;20501;-55
2021/03/19 09:44:48;;;;;;;27.15;17.30;;;3.40;83.10;;;;;;5062701;28;20111;-52
2021/03/19 09:47:16;;;;;;;27.27;16.98;;;3.50;82.60;;;;;;5069572;28;20183;-52
2021/03/19 09:49:41;;;;;;;32.72;17.48;;;3.50;83.10;;;;;;5037415;28;20041;-55
2021/03/19 09:52:15;;;;;;;27.92;16.05;;;3.70;82.70;;;;;;5068059;28;20051;-55
2021/03/19 09:54:42;;;;;;;27.08;15.18;;;3.80;82.10;;;;;;5064002;28;20056;-53
2021/03/19 09:57:27;;;;;;;26.67;15.15;;;3.80;80.20;;;;;;5063477;28;20040;-50
2021/03/19 10:00:06;;;;;;;29.85;16.05;;;3.80;80.50;;;;;;5052584;28;20028;-49
2021/03/19 10:02:38;;;;;;;26.67;15.80;;;3.70;80.90;;;;;;5071203;28;20032;-49
2021/03/19 10:05:10;;;;;;;27.75;16.05;;;3.90;81.20;;;;;;5071703;28;20029;-55
2021/03/19 10:07:40;;;;;;;23.65;14.93;;;4.20;79.90;;;;;;5053108;28;20044;-54
2021/03/19 10:10:27;;;;;;;21.00;13.95;;;4.30;78.70;;;;;;5071128;28;20557;-56
2021/03/19 10:13:08;;;;;;;29.52;15.15;;;4.60;76.80;;;;;;5071249;28;20046;-53
2021/03/19 10:15:34;;;;;;;22.83;14.80;;;4.80;76.00;;;;;;5071104;28;20025;-58
2021/03/19 10:18:03;;;;;;;24.65;14.52;;;4.70;76.10;;;;;;5070713;28;20040;-54
2021/03/19 10:20:30;;;;;;;29.85;14.73;;;4.50;76.10;;;;;;5071044;28;20039;-55
2021/03/19 10:23:15;;;;;;;23.27;13.77;;;4.40;76.50;;;;;;5070390;28;20087;-54
2021/03/19 10:25:45;;;;;;;25.15;14.73;;;4.40;76.00;;;;;;5071200;28;20028;-54
2021/03/19 10:28:17;;;;;;;20.83;12.18;;;4.30;77.20;;;;;;5070150;28;20492;-52
2021/03/19 10:30:48;;;;;;;25.88;13.13;;;4.00;75.00;;;;;;5071174;28;20033;-54
2021/03/19 10:33:25;;;;;;;25.05;13.57;;;3.90;75.80;;;;;;5073004;28;20412;-54
2021/03/19 10:36:03;;;;;;;23.35;13.10;;;4.10;75.40;;;;;;5074626;28;20054;-52
2021/03/19 10:38:32;;;;;;;21.77;11.75;;;4.30;75.30;;;;;;5071872;28;20119;-54
2021/03/19 10:41:26;;;;;;;21.73;12.80;;;4.30;75.60;;;;;;5064770;28;20112;-53
2021/03/19 10:44:16;;;;;;;18.25;11.95;;;4.30;73.40;;;;;;5043164;28;20131;-54
2021/03/19 10:47:08;;;;;;;20.15;12.38;;;4.40;73.80;;;;;;5071418;28;20761;-56
2021/03/19 10:49:56;;;;;;;20.60;11.35;;;4.50;73.90;;;;;;5071131;28;20131;-54
2021/03/19 10:52:52;;;;;;;19.48;12.18;;;4.50;78.50;;;;;;5054659;28;20177;-55
2021/03/19 10:55:25;;;;;;;20.50;11.13;;;5.20;77.50;;;;;;5073542;28;20025;-56
2021/03/19 10:57:55;;;;;;;19.02;11.32;;;5.20;71.40;;;;;;5073605;28;20119;-58
2021/03/19 11:00:37;;;;;;;18.70;10.93;;;5.20;70.90;;;;;;5073663;28;20075;-56
2021/03/19 11:03:06;;;;;;;16.08;9.82;;;5.20;71.00;;;;;;5050433;28;20033;-55
2021/03/19 11:05:53;;;;;;;17.27;11.02;;;5.30;69.50;;;;;;5074340;28;20029;-55
2021/03/19 11:08:19;;;;;;;19.23;11.50;;;5.20;70.60;;;;;;5072892;28;20111;-55
2021/03/19 11:10:47;;;;;;;18.63;11.45;;;4.90;72.10;;;;;;5074580;28;20111;-55
2021/03/19 11:13:13;;;;;;;17.98;11.07;;;4.60;73.80;;;;;;5055927;28;20150;-54
2021/03/19 11:15:42;;;;;;;18.15;10.45;;;4.60;73.60;;;;;;5074229;28;20062;-56
2021/03/19 11:18:14;;;;;;;17.25;9.80;;;4.60;73.30;;;;;;5072772;28;20073;-54
2021/03/19 11:20:41;;;;;;;17.80;9.80;;;4.60;72.10;;;;;;5073748;28;20024;-50
2021/03/19 11:23:28;;;;;;;17.58;9.65;;;4.60;72.10;;;;;;5073827;28;20142;-55
2021/03/19 11:25:55;;;;;;;16.35;9.60;;;4.80;72.20;;;;;;5072999;28;20032;-49
2021/03/19 11:28:26;;;;;;;15.75;9.20;;;4.80;72.10;;;;;;5072387;28;20170;-52
2021/03/19 11:30:52;;;;;;;14.82;9.38;;;4.80;71.80;;;;;;5073808;28;20024;-51
2021/03/19 11:33:19;;;;;;;14.02;8.50;;;4.70;72.70;;;;;;5073423;28;20028;-53
2021/03/19 11:36:08;;;;;;;15.18;8.70;;;4.60;72.40;;;;;;5073677;28;20029;-52
2021/03/19 11:38:37;;;;;;;12.57;8.38;;;4.70;71.50;;;;;;5054982;28;20499;-53
2021/03/19 11:41:26;;;;;;;14.95;9.77;;;4.80;71.40;;;;;;5072606;28;20618;-53
2021/03/19 11:43:51;;;;;;;12.80;7.78;;;5.00;71.00;;;;;;5066052;28;20110;-61
2021/03/19 11:46:19;;;;;;;11.30;8.15;;;5.20;70.60;;;;;;5068870;28;20163;-52
2021/03/19 11:48:45;;;;;;;15.50;8.82;;;5.50;68.50;;;;;;5072720;28;20052;-55
2021/03/19 11:51:24;;;;;;;12.50;7.80;;;5.40;68.00;;;;;;5073077;28;20476;-55
2021/03/19 11:53:49;;;;;;;14.60;9.13;;;5.60;67.80;;;;;;5072461;28;20666;-52
2021/03/19 11:56:15;;;;;;;9.80;6.75;;;5.90;68.90;;;;;;5069773;28;20040;-51
2021/03/19 11:58:40;;;;;;;11.55;6.78;;;6.00;64.50;;;;;;5065388;28;20037;-49
2021/03/19 12:01:08;;;;;;;9.27;6.43;;;5.70;64.30;;;;;;5061121;28;20044;-52
2021/03/19 12:03:38;;;;;;;11.95;7.28;;;5.80;65.30;;;;;;5046572;28;20486;-57
2021/03/19 12:06:06;;;;;;;11.07;8.00;;;5.50;65.00;;;;;;5028626;28;20041;-54
2021/03/19 12:08:33;;;;;;;11.50;7.72;;;5.30;66.10;;;;;;5065362;28;20036;-54
2021/03/19 12:11:00;;;;;;;11.27;7.47;;;5.20;67.50;;;;;;5065362;28;20028;-53
2021/03/19 12:13:26;;;;;;;9.15;6.90;;;5.30;66.60;;;;;;5054214;28;20029;-56
2021/03/19 12:15:52;;;;;;;11.40;7.40;;;5.50;65.70;;;;;;5072330;28;20036;-56
2021/03/19 12:18:23;;;;;;;12.10;6.75;;;5.80;63.90;;;;;;5072157;28;20032;-54
2021/03/19 12:20:49;;;;;;;9.35;6.25;;;5.90;62.20;;;;;;5072985;28;20040;-56
2021/03/19 12:23:16;;;;;;;7.75;5.15;;;5.90;61.40;;;;;;5072879;28;20423;-53
2021/03/19 12:25:42;;;;;;;7.07;4.47;;;5.60;61.50;;;;;;5056939;28;20082;-50
2021/03/19 12:28:18;;;;;;;7.32;5.00;;;5.60;62.50;;;;;;5066763;28;20036;-55
2021/03/19 12:30:45;;;;;;;9.40;5.43;;;5.50;62.30;;;;;;5072886;28;20602;-49
2021/03/19 12:33:12;;;;;;;7.88;5.03;;;5.50;62.60;;;;;;5072440;28;20032;-56
2021/03/19 12:35:38;;;;;;;9.25;5.25;;;5.40;63.50;;;;;;5073139;28;20032;-53
2021/03/19 12:38:04;;;;;;;8.23;5.50;;;5.50;64.40;;;;;;5080912;28;20040;-52
2021/03/19 12:40:31;;;;;;;8.75;5.60;;;5.60;64.60;;;;;;5072537;28;20032;-55
2021/03/19 12:42:57;;;;;;;7.57;4.88;;;5.50;64.80;;;;;;5054368;28;20055;-54
2021/03/19 12:45:25;;;;;;;5.57;4.60;;;5.40;64.00;;;;;;5069195;28;20032;-54
2021/03/19 12:47:51;;;;;;;7.55;4.47;;;5.40;63.00;;;;;;5071282;28;20043;-55
2021/03/19 12:50:20;;;;;;;9.25;4.82;;;5.30;62.40;;;;;;5055100;28;20032;-52
2021/03/19 12:52:46;;;;;;;6.97;4.90;;;5.10;63.80;;;;;;5053923;28;20033;-51
2021/03/19 12:55:13;;;;;;;7.93;4.97;;;5.20;64.10;;;;;;5072853;28;20028;-54
2021/03/19 12:57:38;;;;;;;6.97;4.80;;;5.30;64.00;;;;;;5054590;28;20036;-53
2021/03/19 13:00:06;;;;;;;6.90;4.60;;;5.50;64.00;;;;;;5070698;28;20044;-55
2021/03/19 13:02:31;;;;;;;6.75;4.80;;;5.60;63.60;;;;;;5060361;28;20047;-56
2021/03/19 13:04:57;;;;;;;8.40;5.38;;;5.50;64.60;;;;;;5054381;28;20116;-55
2021/03/19 13:07:23;;;;;;;6.40;5.03;;;5.40;65.10;;;;;;5071323;28;20128;-54
2021/03/19 13:09:48;;;;;;;7.88;5.60;;;5.40;65.60;;;;;;5053916;28;20036;-49
2021/03/19 13:12:16;;;;;;;6.22;5.38;;;5.40;65.30;;;;;;5071911;28;20029;-58
2021/03/19 13:14:42;;;;;;;10.32;5.60;;;5.50;65.40;;;;;;5071530;28;20023;-52
2021/03/19 13:17:07;;;;;;;7.20;5.32;;;5.70;65.40;;;;;;5073347;28;20433;-52